^^

..:: Storico WU ::..




Lo storico viene creato da WUnderground con i dati che la stazione Meteomincio invia al loro server. L' aggiornamento viene fatto ogni 5 minuti circa, tuttavia possono esserci intervalli pił ampi a causa di errori, interruzioni di servizio o problemi nell' invio tramite FTP.


Storico stazione MeteoMincio
Giorno Sommario per Giugno 06, 2022 Unità:  Entrambi    Inglese   Metrico
Giorno Settimana Mese Anno
  Max: Min: Media:
Temperatura: 87.8 °F /  31.0 °C 64.4 °F /  18.0 °C 77.2 °F /  25.1 °C
Dew Point: 69.8 °F /  21.0 °C 59 °F /  15.0 °C 64.6 °F /  18.1 °C
Umidità: 82% 53% 66%
Velocità vento: 8.1mph /  13km/h - 4.4mph /  7.1km/h
Raffica: 14.3mph /  23km/h - -
Direzione- - SSE
Pressione: 30 in /  1015.1 hPa 29.9 in /  1011.5 hPa -
Precipitazioni: 0 in /  0.00 mm    
 
 
Tabulato Dati per Giugno 06, 2022
Ora Temperatura Dew Point Pressione Direzione Velocità vento Raffica Umidità Intensità pioggia (oraria) Info solare Situazione
00:04 69.8 °F /  21.0 °C 60.8 °F /  16.0 °C 29.9in /  1013.4hPa West 3.7mph /  6km/h 5mph /  8km/h 76% 0in /  0.00mm 0.00 W/m2 unknown
00:09 69.8 °F /  21.0 °C 60.8 °F /  16.0 °C 29.9in /  1013.5hPa West 3.1mph /  5km/h 5mph /  8km/h 78% 0in /  0.00mm 0.00 W/m2 unknown
00:14 68 °F /  20.0 °C 60.8 °F /  16.0 °C 29.9in /  1013.6hPa West 3.7mph /  6km/h 5mph /  8km/h 78% 0in /  0.00mm 0.00 W/m2 unknown
00:19 68 °F /  20.0 °C 60.8 °F /  16.0 °C 29.9in /  1013.5hPa West 4.3mph /  7km/h 5mph /  8km/h 78% 0in /  0.00mm 0.00 W/m2 unknown
00:24 68 °F /  20.0 °C 62.6 °F /  17.0 °C 29.9in /  1013.5hPa WNW 4.3mph /  7km/h 6.2mph /  10km/h 78% 0in /  0.00mm 0.00 W/m2 unknown
00:29 69.8 °F /  21.0 °C 62.6 °F /  17.0 °C 29.9in /  1013.5hPa WNW 4.3mph /  7km/h 5.6mph /  9km/h 78% 0in /  0.00mm 0.00 W/m2 unknown
00:34 69.8 °F /  21.0 °C 60.8 °F /  16.0 °C 29.9in /  1013.5hPa WNW 4.3mph /  7km/h 6.8mph /  11km/h 77% 0in /  0.00mm 0.00 W/m2 unknown
00:39 69.8 °F /  21.0 °C 60.8 °F /  16.0 °C 29.9in /  1013.5hPa WNW 5mph /  8km/h 6.8mph /  11km/h 77% 0in /  0.00mm 0.00 W/m2 unknown
00:44 69.8 °F /  21.0 °C 60.8 °F /  16.0 °C 29.9in /  1013.4hPa WNW 5mph /  8km/h 6.8mph /  11km/h 77% 0in /  0.00mm 0.00 W/m2 unknown
00:49 69.8 °F /  21.0 °C 60.8 °F /  16.0 °C 29.9in /  1013.5hPa WNW 5mph /  8km/h 6.8mph /  11km/h 77% 0in /  0.00mm 0.00 W/m2 unknown
00:54 69.8 °F /  21.0 °C 60.8 °F /  16.0 °C 29.9in /  1013.6hPa WNW 5mph /  8km/h 6.8mph /  11km/h 77% 0in /  0.00mm 0.00 W/m2 unknown
00:59 69.8 °F /  21.0 °C 60.8 °F /  16.0 °C 29.9in /  1013.6hPa West 3.7mph /  6km/h 6.8mph /  11km/h 78% 0in /  0.00mm 0.00 W/m2 unknown
01:04 68 °F /  20.0 °C 60.8 °F /  16.0 °C 29.9in /  1013.6hPa WSW 3.7mph /  6km/h 5mph /  8km/h 78% 0in /  0.00mm 0.00 W/m2 unknown
01:09 68 °F /  20.0 °C 60.8 °F /  16.0 °C 29.9in /  1013.6hPa WSW 3.1mph /  5km/h 3.7mph /  6km/h 78% 0in /  0.00mm 0.00 W/m2 unknown
01:14 68 °F /  20.0 °C 60.8 °F /  16.0 °C 29.9in /  1013.8hPa WSW 3.1mph /  5km/h 3.7mph /  6km/h 79% 0in /  0.00mm 0.00 W/m2 unknown
01:19 68 °F /  20.0 °C 60.8 °F /  16.0 °C 29.9in /  1013.8hPa WSW 3.1mph /  5km/h 5mph /  8km/h 79% 0in /  0.00mm 0.00 W/m2 unknown
01:24 68 °F /  20.0 °C 60.8 °F /  16.0 °C 29.9in /  1013.8hPa WSW 3.7mph /  6km/h 5mph /  8km/h 79% 0in /  0.00mm 0.00 W/m2 unknown
01:29 68 °F /  20.0 °C 60.8 °F /  16.0 °C 29.9in /  1013.8hPa West 3.1mph /  5km/h 5mph /  8km/h 79% 0in /  0.00mm 0.00 W/m2 unknown
01:34 68 °F /  20.0 °C 60.8 °F /  16.0 °C 29.9in /  1013.7hPa West 3.1mph /  5km/h 5mph /  8km/h 79% 0in /  0.00mm 0.00 W/m2 unknown
01:39 68 °F /  20.0 °C 60.8 °F /  16.0 °C 29.9in /  1013.7hPa WNW 3.1mph /  5km/h 5mph /  8km/h 79% 0in /  0.00mm 0.00 W/m2 unknown
01:44 68 °F /  20.0 °C 60.8 °F /  16.0 °C 29.9in /  1013.7hPa WNW 3.1mph /  5km/h 5mph /  8km/h 79% 0in /  0.00mm 0.00 W/m2 unknown
01:49 68 °F /  20.0 °C 60.8 °F /  16.0 °C 29.9in /  1013.7hPa WNW 1.9mph /  3km/h 5mph /  8km/h 79% 0in /  0.00mm 0.00 W/m2 unknown
01:54 68 °F /  20.0 °C 60.8 °F /  16.0 °C 29.9in /  1013.6hPa WNW 3.1mph /  5km/h 3.7mph /  6km/h 78% 0in /  0.00mm 0.00 W/m2 unknown
01:59 68 °F /  20.0 °C 60.8 °F /  16.0 °C 29.9in /  1013.6hPa NW 3.7mph /  6km/h 5mph /  8km/h 77% 0in /  0.00mm 0.00 W/m2 unknown
02:04 68 °F /  20.0 °C 60.8 °F /  16.0 °C 29.9in /  1013.6hPa WNW 3.7mph /  6km/h 5mph /  8km/h 77% 0in /  0.00mm 0.00 W/m2 unknown
02:09 68 °F /  20.0 °C 60.8 °F /  16.0 °C 29.9in /  1013.7hPa WNW 3.1mph /  5km/h 5mph /  8km/h 77% 0in /  0.00mm 0.00 W/m2 unknown
02:13 68 °F /  20.0 °C 60.8 °F /  16.0 °C 29.9in /  1013.7hPa West 2.5mph /  4km/h 5mph /  8km/h 76% 0in /  0.00mm 0.00 W/m2 unknown
02:18 68 °F /  20.0 °C 60.8 °F /  16.0 °C 29.9in /  1013.7hPa West 3.1mph /  5km/h 3.7mph /  6km/h 77% 0in /  0.00mm 0.00 W/m2 unknown
02:24 68 °F /  20.0 °C 60.8 °F /  16.0 °C 29.9in /  1013.7hPa NW 3.1mph /  5km/h 3.7mph /  6km/h 76% 0in /  0.00mm 0.00 W/m2 unknown
02:29 68 °F /  20.0 °C 60.8 °F /  16.0 °C 29.9in /  1013.7hPa NW 3.7mph /  6km/h 5mph /  8km/h 76% 0in /  0.00mm 0.00 W/m2 unknown
02:34 68 °F /  20.0 °C 60.8 °F /  16.0 °C 29.9in /  1013.7hPa WNW 4.3mph /  7km/h 5mph /  8km/h 75% 0in /  0.00mm 0.00 W/m2 unknown
02:39 68 °F /  20.0 °C 60.8 °F /  16.0 °C 29.9in /  1013.7hPa NW 3.7mph /  6km/h 8.7mph /  14km/h 74% 0in /  0.00mm 0.00 W/m2 unknown
02:44 68 °F /  20.0 °C 60.8 °F /  16.0 °C 29.9in /  1013.7hPa NW 5mph /  8km/h 9.3mph /  15km/h 74% 0in /  0.00mm 0.00 W/m2 unknown
02:49 68 °F /  20.0 °C 59 °F /  15.0 °C 29.9in /  1013.8hPa NW 5mph /  8km/h 9.3mph /  15km/h 73% 0in /  0.00mm 0.00 W/m2 unknown
02:54 69.8 °F /  21.0 °C 59 °F /  15.0 °C 29.9in /  1013.8hPa NNW 5mph /  8km/h 8.7mph /  14km/h 73% 0in /  0.00mm 0.00 W/m2 unknown
02:59 69.8 °F /  21.0 °C 59 °F /  15.0 °C 29.9in /  1013.8hPa NNW 5mph /  8km/h 6.8mph /  11km/h 72% 0in /  0.00mm 0.00 W/m2 unknown
03:04 69.8 °F /  21.0 °C 59 °F /  15.0 °C 29.9in /  1013.8hPa NNW 5.6mph /  9km/h 9.3mph /  15km/h 71% 0in /  0.00mm 0.00 W/m2 unknown
03:09 69.8 °F /  21.0 °C 59 °F /  15.0 °C 29.9in /  1013.7hPa NNW 5.6mph /  9km/h 9.3mph /  15km/h 70% 0in /  0.00mm 0.00 W/m2 unknown
03:14 69.8 °F /  21.0 °C 59 °F /  15.0 °C 29.9in /  1013.7hPa NNW 5.6mph /  9km/h 9.3mph /  15km/h 70% 0in /  0.00mm 0.00 W/m2 unknown
03:19 69.8 °F /  21.0 °C 59 °F /  15.0 °C 29.9in /  1013.6hPa NW 5mph /  8km/h 9.3mph /  15km/h 69% 0in /  0.00mm 0.00 W/m2 unknown
03:24 69.8 °F /  21.0 °C 59 °F /  15.0 °C 29.9in /  1013.6hPa NNW 5mph /  8km/h 8.7mph /  14km/h 69% 0in /  0.00mm 0.00 W/m2 unknown
03:29 69.8 °F /  21.0 °C 59 °F /  15.0 °C 29.9in /  1013.6hPa NW 3.7mph /  6km/h 6.2mph /  10km/h 68% 0in /  0.00mm 0.00 W/m2 unknown
03:34 69.8 °F /  21.0 °C 59 °F /  15.0 °C 29.9in /  1013.6hPa NW 3.1mph /  5km/h 5mph /  8km/h 67% 0in /  0.00mm 0.00 W/m2 unknown
03:39 69.8 °F /  21.0 °C 59 °F /  15.0 °C 29.9in /  1013.5hPa WNW 3.1mph /  5km/h 5mph /  8km/h 67% 0in /  0.00mm 0.00 W/m2 unknown
03:44 69.8 °F /  21.0 °C 59 °F /  15.0 °C 29.9in /  1013.5hPa WNW 2.5mph /  4km/h 3.7mph /  6km/h 69% 0in /  0.00mm 0.00 W/m2 unknown
03:49 69.8 °F /  21.0 °C 59 °F /  15.0 °C 29.9in /  1013.4hPa WNW 3.1mph /  5km/h 5mph /  8km/h 70% 0in /  0.00mm 0.00 W/m2 unknown
03:54 69.8 °F /  21.0 °C 59 °F /  15.0 °C 29.9in /  1013.4hPa West 3.7mph /  6km/h 5mph /  8km/h 71% 0in /  0.00mm 0.00 W/m2 unknown
03:58 68 °F /  20.0 °C 59 °F /  15.0 °C 29.9in /  1013.3hPa West 3.7mph /  6km/h 5mph /  8km/h 72% 0in /  0.00mm 0.00 W/m2 unknown
04:03 68 °F /  20.0 °C 59 °F /  15.0 °C 29.9in /  1013.4hPa West 3.7mph /  6km/h 5mph /  8km/h 73% 0in /  0.00mm 0.00 W/m2 unknown
04:08 68 °F /  20.0 °C 59 °F /  15.0 °C 29.9in /  1013.4hPa West 3.1mph /  5km/h 5mph /  8km/h 73% 0in /  0.00mm 0.00 W/m2 unknown
04:14 68 °F /  20.0 °C 59 °F /  15.0 °C 29.9in /  1013.4hPa WNW 3.1mph /  5km/h 3.7mph /  6km/h 74% 0in /  0.00mm 0.00 W/m2 unknown
04:18 68 °F /  20.0 °C 59 °F /  15.0 °C 29.9in /  1013.4hPa WNW 3.7mph /  6km/h 5mph /  8km/h 74% 0in /  0.00mm 0.00 W/m2 unknown
04:24 68 °F /  20.0 °C 59 °F /  15.0 °C 29.9in /  1013.5hPa WNW 3.7mph /  6km/h 6.2mph /  10km/h 73% 0in /  0.00mm 0.00 W/m2 unknown
04:28 68 °F /  20.0 °C 59 °F /  15.0 °C 29.9in /  1013.5hPa NW 4.3mph /  7km/h 6.2mph /  10km/h 72% 0in /  0.00mm 0.00 W/m2 unknown
04:33 68 °F /  20.0 °C 59 °F /  15.0 °C 29.9in /  1013.5hPa NW 4.3mph /  7km/h 5.6mph /  9km/h 73% 0in /  0.00mm 0.00 W/m2 unknown
04:39 68 °F /  20.0 °C 59 °F /  15.0 °C 29.9in /  1013.5hPa WNW 3.1mph /  5km/h 6.2mph /  10km/h 74% 0in /  0.00mm 0.00 W/m2 unknown
04:44 68 °F /  20.0 °C 59 °F /  15.0 °C 29.9in /  1013.5hPa WNW 3.1mph /  5km/h 3.7mph /  6km/h 74% 0in /  0.00mm 0.00 W/m2 unknown
04:48 68 °F /  20.0 °C 59 °F /  15.0 °C 29.9in /  1013.5hPa WNW 3.1mph /  5km/h 3.7mph /  6km/h 74% 0in /  0.00mm 0.00 W/m2 unknown
04:53 66.2 °F /  19.0 °C 59 °F /  15.0 °C 29.9in /  1013.5hPa West 3.1mph /  5km/h 3.7mph /  6km/h 74% 0in /  0.00mm 0.00 W/m2 unknown
04:58 66.2 °F /  19.0 °C 59 °F /  15.0 °C 29.9in /  1013.5hPa WSW 3.1mph /  5km/h 5mph /  8km/h 75% 0in /  0.00mm 0.00 W/m2 unknown
05:00 66.2 °F /  19.0 °C 59 °F /  15.0 °C 29.9in /  1013.5hPa West 3.1mph /  5km/h 5mph /  8km/h 75% 0in /  0.00mm 0.00 W/m2 unknown
05:09 66.2 °F /  19.0 °C 59 °F /  15.0 °C 29.9in /  1013.6hPa West 4.3mph /  7km/h 5mph /  8km/h 76% 0in /  0.00mm 0.00 W/m2 unknown
05:14 68 °F /  20.0 °C 59 °F /  15.0 °C 29.9in /  1013.6hPa WNW 5.6mph /  9km/h 6.8mph /  11km/h 76% 0in /  0.00mm 0.00 W/m2 unknown
05:19 68 °F /  20.0 °C 59 °F /  15.0 °C 29.9in /  1013.6hPa WNW 5.6mph /  9km/h 6.8mph /  11km/h 74% 0in /  0.00mm 0.00 W/m2 unknown
05:24 68 °F /  20.0 °C 59 °F /  15.0 °C 29.9in /  1013.6hPa West 5mph /  8km/h 6.8mph /  11km/h 74% 0in /  0.00mm 0.00 W/m2 unknown
05:28 68 °F /  20.0 °C 59 °F /  15.0 °C 29.9in /  1013.7hPa WSW 5mph /  8km/h 6.8mph /  11km/h 76% 0in /  0.00mm 0.00 W/m2 unknown
05:34 66.2 °F /  19.0 °C 59 °F /  15.0 °C 29.9in /  1013.8hPa West 5mph /  8km/h 3.7mph /  6km/h 78% 0in /  0.00mm 0.00 W/m2 unknown
05:39 66.2 °F /  19.0 °C 59 °F /  15.0 °C 29.9in /  1013.8hPa WNW 3.1mph /  5km/h 5mph /  8km/h 78% 0in /  0.00mm 5.00 W/m2 unknown
05:44 66.2 °F /  19.0 °C 59 °F /  15.0 °C 29.9in /  1013.8hPa WNW 3.1mph /  5km/h 5mph /  8km/h 78% 0in /  0.00mm 7.00 W/m2 unknown
05:49 66.2 °F /  19.0 °C 59 °F /  15.0 °C 29.9in /  1013.8hPa WNW 3.1mph /  5km/h 5mph /  8km/h 78% 0in /  0.00mm 11.00 W/m2 unknown
05:54 66.2 °F /  19.0 °C 59 °F /  15.0 °C 29.9in /  1013.8hPa West 4.3mph /  7km/h 6.2mph /  10km/h 79% 0in /  0.00mm 12.00 W/m2 unknown
05:59 64.4 °F /  18.0 °C 59 °F /  15.0 °C 29.9in /  1013.8hPa WSW 5mph /  8km/h 6.2mph /  10km/h 80% 0in /  0.00mm 14.00 W/m2 unknown
06:03 64.4 °F /  18.0 °C 59 °F /  15.0 °C 29.9in /  1013.8hPa West 5mph /  8km/h 6.2mph /  10km/h 80% 0in /  0.00mm 14.00 W/m2 unknown
06:09 64.4 °F /  18.0 °C 59 °F /  15.0 °C 29.9in /  1013.8hPa West 5mph /  8km/h 6.2mph /  10km/h 82% 0in /  0.00mm 19.00 W/m2 unknown
06:13 64.4 °F /  18.0 °C 59 °F /  15.0 °C 29.9in /  1013.7hPa West 5mph /  8km/h 6.2mph /  10km/h 82% 0in /  0.00mm 21.00 W/m2 unknown
06:18 64.4 °F /  18.0 °C 59 °F /  15.0 °C 29.9in /  1013.8hPa WNW 5mph /  8km/h 6.2mph /  10km/h 81% 0in /  0.00mm 23.00 W/m2 unknown
06:24 66.2 °F /  19.0 °C 59 °F /  15.0 °C 29.9in /  1013.8hPa West 5mph /  8km/h 6.2mph /  10km/h 81% 0in /  0.00mm 35.00 W/m2 unknown
06:29 66.2 °F /  19.0 °C 59 °F /  15.0 °C 29.9in /  1013.9hPa WNW 4.3mph /  7km/h 6.2mph /  10km/h 80% 0in /  0.00mm 44.00 W/m2 unknown
06:34 66.2 °F /  19.0 °C 59 °F /  15.0 °C 29.9in /  1013.8hPa WNW 4.3mph /  7km/h 6.8mph /  11km/h 79% 0in /  0.00mm 53.00 W/m2 unknown
06:39 66.2 °F /  19.0 °C 59 °F /  15.0 °C 29.9in /  1013.8hPa WNW 5mph /  8km/h 6.8mph /  11km/h 78% 0in /  0.00mm 62.00 W/m2 unknown
06:44 66.2 °F /  19.0 °C 59 °F /  15.0 °C 29.9in /  1013.8hPa West 5mph /  8km/h 6.8mph /  11km/h 78% 0in /  0.00mm 74.00 W/m2 unknown
06:49 68 °F /  20.0 °C 59 °F /  15.0 °C 29.9in /  1013.8hPa WNW 4.3mph /  7km/h 5.6mph /  9km/h 77% 0in /  0.00mm 84.00 W/m2 unknown
06:54 68 °F /  20.0 °C 60.8 °F /  16.0 °C 29.9in /  1013.9hPa West 3.1mph /  5km/h 5mph /  8km/h 77% 0in /  0.00mm 97.00 W/m2 unknown
06:59 68 °F /  20.0 °C 60.8 °F /  16.0 °C 29.9in /  1013.9hPa WNW 3.7mph /  6km/h 6.2mph /  10km/h 77% 0in /  0.00mm 113.00 W/m2 unknown
07:04 68 °F /  20.0 °C 60.8 °F /  16.0 °C 29.9in /  1013.9hPa WNW 5mph /  8km/h 6.2mph /  10km/h 76% 0in /  0.00mm 128.00 W/m2 unknown
07:09 68 °F /  20.0 °C 60.8 °F /  16.0 °C 29.9in /  1013.9hPa WNW 5mph /  8km/h 6.2mph /  10km/h 75% 0in /  0.00mm 144.00 W/m2 unknown
07:14 68 °F /  20.0 °C 60.8 °F /  16.0 °C 29.9in /  1013.8hPa WNW 5mph /  8km/h 6.2mph /  10km/h 75% 0in /  0.00mm 151.00 W/m2 unknown
07:19 69.8 °F /  21.0 °C 60.8 °F /  16.0 °C 29.9in /  1013.9hPa WNW 5mph /  8km/h 6.2mph /  10km/h 74% 0in /  0.00mm 169.00 W/m2 unknown
07:24 69.8 °F /  21.0 °C 60.8 °F /  16.0 °C 29.9in /  1013.9hPa NNW 3.7mph /  6km/h 6.2mph /  10km/h 74% 0in /  0.00mm 186.00 W/m2 unknown
07:29 69.8 °F /  21.0 °C 60.8 °F /  16.0 °C 29.9in /  1013.9hPa NW 3.7mph /  6km/h 6.2mph /  10km/h 73% 0in /  0.00mm 200.00 W/m2 unknown
07:34 71.6 °F /  22.0 °C 60.8 °F /  16.0 °C 29.9in /  1014.0hPa NW 3.7mph /  6km/h 6.2mph /  10km/h 72% 0in /  0.00mm 213.00 W/m2 unknown
07:39 71.6 °F /  22.0 °C 60.8 °F /  16.0 °C 29.9in /  1014.1hPa NW 4.3mph /  7km/h 6.8mph /  11km/h 71% 0in /  0.00mm 227.00 W/m2 unknown
07:44 71.6 °F /  22.0 °C 62.6 °F /  17.0 °C 30in /  1014.2hPa NW 4.3mph /  7km/h 6.8mph /  11km/h 71% 0in /  0.00mm 239.00 W/m2 unknown
07:49 71.6 °F /  22.0 °C 62.6 °F /  17.0 °C 30in /  1014.3hPa NNW 5mph /  8km/h 6.8mph /  11km/h 71% 0in /  0.00mm 251.00 W/m2 unknown
07:54 71.6 °F /  22.0 °C 62.6 °F /  17.0 °C 30in /  1014.4hPa North 4.3mph /  7km/h 6.2mph /  10km/h 71% 0in /  0.00mm 265.00 W/m2 unknown
07:59 73.4 °F /  23.0 °C 62.6 °F /  17.0 °C 30in /  1014.4hPa NNW 3.1mph /  5km/h 6.2mph /  10km/h 70% 0in /  0.00mm 276.00 W/m2 unknown
08:04 73.4 °F /  23.0 °C 62.6 °F /  17.0 °C 30in /  1014.4hPa North 4.3mph /  7km/h 6.2mph /  10km/h 71% 0in /  0.00mm 288.00 W/m2 unknown
08:09 73.4 °F /  23.0 °C 62.6 °F /  17.0 °C 30in /  1014.4hPa North 4.3mph /  7km/h 6.8mph /  11km/h 71% 0in /  0.00mm 304.00 W/m2 unknown
08:14 73.4 °F /  23.0 °C 62.6 °F /  17.0 °C 30in /  1014.4hPa North 4.3mph /  7km/h 6.8mph /  11km/h 70% 0in /  0.00mm 318.00 W/m2 unknown
08:19 73.4 °F /  23.0 °C 64.4 °F /  18.0 °C 30in /  1014.5hPa NNE 3.7mph /  6km/h 6.8mph /  11km/h 70% 0in /  0.00mm 330.00 W/m2 unknown
08:24 75.2 °F /  24.0 °C 64.4 °F /  18.0 °C 30in /  1014.5hPa NNE 5mph /  8km/h 6.8mph /  11km/h 70% 0in /  0.00mm 346.00 W/m2 unknown
08:29 75.2 °F /  24.0 °C 64.4 °F /  18.0 °C 30in /  1014.5hPa NNE 5mph /  8km/h 6.8mph /  11km/h 70% 0in /  0.00mm 359.00 W/m2 unknown
08:34 75.2 °F /  24.0 °C 64.4 °F /  18.0 °C 30in /  1014.6hPa NNE 5mph /  8km/h 6.8mph /  11km/h 71% 0in /  0.00mm 371.00 W/m2 unknown
08:39 75.2 °F /  24.0 °C 64.4 °F /  18.0 °C 30in /  1014.7hPa NNE 5mph /  8km/h 6.8mph /  11km/h 71% 0in /  0.00mm 383.00 W/m2 unknown
08:44 75.2 °F /  24.0 °C 64.4 °F /  18.0 °C 30in /  1014.7hPa NNE 5.6mph /  9km/h 8.1mph /  13km/h 71% 0in /  0.00mm 397.00 W/m2 unknown
08:49 75.2 °F /  24.0 °C 64.4 °F /  18.0 °C 30in /  1014.7hPa NNE 5.6mph /  9km/h 8.1mph /  13km/h 72% 0in /  0.00mm 413.00 W/m2 unknown
08:54 75.2 °F /  24.0 °C 64.4 °F /  18.0 °C 30in /  1014.8hPa NNE 6.2mph /  10km/h 8.1mph /  13km/h 70% 0in /  0.00mm 427.00 W/m2 unknown
08:59 75.2 °F /  24.0 °C 64.4 °F /  18.0 °C 30in /  1014.9hPa NNE 6.2mph /  10km/h 8.1mph /  13km/h 70% 0in /  0.00mm 445.00 W/m2 unknown
09:04 75.2 °F /  24.0 °C 66.2 °F /  19.0 °C 30in /  1014.9hPa NNE 5mph /  8km/h 6.8mph /  11km/h 71% 0in /  0.00mm 457.00 W/m2 unknown
09:09 75.2 °F /  24.0 °C 64.4 °F /  18.0 °C 30in /  1014.9hPa NE 5mph /  8km/h 6.8mph /  11km/h 70% 0in /  0.00mm 468.00 W/m2 unknown
09:14 75.2 °F /  24.0 °C 64.4 °F /  18.0 °C 30in /  1014.8hPa NNE 5mph /  8km/h 6.2mph /  10km/h 70% 0in /  0.00mm 483.00 W/m2 unknown
09:19 75.2 °F /  24.0 °C 64.4 °F /  18.0 °C 30in /  1014.8hPa NE 5mph /  8km/h 6.8mph /  11km/h 69% 0in /  0.00mm 499.00 W/m2 unknown
09:24 77 °F /  25.0 °C 64.4 °F /  18.0 °C 30in /  1014.8hPa NNE 5mph /  8km/h 8.1mph /  13km/h 69% 0in /  0.00mm 513.00 W/m2 unknown
09:29 77 °F /  25.0 °C 64.4 °F /  18.0 °C 30in /  1014.9hPa NE 5.6mph /  9km/h 8.1mph /  13km/h 68% 0in /  0.00mm 527.00 W/m2 unknown
09:34 77 °F /  25.0 °C 64.4 °F /  18.0 °C 30in /  1014.9hPa NE 6.2mph /  10km/h 8.1mph /  13km/h 67% 0in /  0.00mm 538.00 W/m2 unknown
09:39 77 °F /  25.0 °C 64.4 °F /  18.0 °C 30in /  1014.9hPa NE 6.2mph /  10km/h 8.1mph /  13km/h 68% 0in /  0.00mm 555.00 W/m2 unknown
09:44 77 °F /  25.0 °C 64.4 °F /  18.0 °C 30in /  1014.9hPa NE 5mph /  8km/h 8.1mph /  13km/h 68% 0in /  0.00mm 561.00 W/m2 unknown
09:45 77 °F /  25.0 °C 64.4 °F /  18.0 °C 30in /  1014.9hPa ENE 3.1mph /  5km/h 8.1mph /  13km/h 67% 0in /  0.00mm 571.00 W/m2 unknown
09:54 77 °F /  25.0 °C 66.2 °F /  19.0 °C 30in /  1015.0hPa NE 3.1mph /  5km/h 8.1mph /  13km/h 67% 0in /  0.00mm 596.00 W/m2 unknown
09:59 78.8 °F /  26.0 °C 66.2 °F /  19.0 °C 30in /  1015.0hPa NNE 5mph /  8km/h 6.8mph /  11km/h 66% 0in /  0.00mm 613.00 W/m2 unknown
10:04 78.8 °F /  26.0 °C 64.4 °F /  18.0 °C 30in /  1015.0hPa ENE 5mph /  8km/h 6.8mph /  11km/h 65% 0in /  0.00mm 613.00 W/m2 unknown
10:09 78.8 °F /  26.0 °C 64.4 °F /  18.0 °C 30in /  1015.0hPa East 5mph /  8km/h 8.1mph /  13km/h 64% 0in /  0.00mm 629.00 W/m2 unknown
10:14 78.8 °F /  26.0 °C 64.4 °F /  18.0 °C 30in /  1015.1hPa ENE 5.6mph /  9km/h 8.1mph /  13km/h 63% 0in /  0.00mm 598.00 W/m2 unknown
10:19 78.8 °F /  26.0 °C 66.2 °F /  19.0 °C 30in /  1015.1hPa ENE 5.6mph /  9km/h 8.1mph /  13km/h 63% 0in /  0.00mm 657.00 W/m2 unknown
10:24 78.8 °F /  26.0 °C 66.2 °F /  19.0 °C 30in /  1015.0hPa ENE 6.2mph /  10km/h 8.1mph /  13km/h 63% 0in /  0.00mm 664.00 W/m2 unknown
10:29 78.8 °F /  26.0 °C 66.2 °F /  19.0 °C 30in /  1015.0hPa NNE 6.2mph /  10km/h 8.1mph /  13km/h 65% 0in /  0.00mm 680.00 W/m2 unknown
10:34 78.8 °F /  26.0 °C 64.4 °F /  18.0 °C 30in /  1015.0hPa East 5mph /  8km/h 8.1mph /  13km/h 61% 0in /  0.00mm 698.00 W/m2 unknown
10:39 78.8 °F /  26.0 °C 64.4 °F /  18.0 °C 30in /  1015.0hPa ENE 5mph /  8km/h 8.1mph /  13km/h 63% 0in /  0.00mm 619.00 W/m2 unknown
10:44 80.6 °F /  27.0 °C 66.2 °F /  19.0 °C 30in /  1015.0hPa NE 5mph /  8km/h 6.8mph /  11km/h 63% 0in /  0.00mm 686.00 W/m2 unknown
10:49 80.6 °F /  27.0 °C 66.2 °F /  19.0 °C 30in /  1015.0hPa ENE 4.3mph /  7km/h 6.8mph /  11km/h 62% 0in /  0.00mm 696.00 W/m2 unknown
10:54 80.6 °F /  27.0 °C 64.4 °F /  18.0 °C 30in /  1015.0hPa ENE 3.7mph /  6km/h 6.8mph /  11km/h 61% 0in /  0.00mm 675.00 W/m2 unknown
10:59 78.8 °F /  26.0 °C 64.4 °F /  18.0 °C 30in /  1015.0hPa NNE 4.3mph /  7km/h 8.1mph /  13km/h 61% 0in /  0.00mm 691.00 W/m2 unknown
11:04 80.6 °F /  27.0 °C 66.2 °F /  19.0 °C 30in /  1015.0hPa NNE 5mph /  8km/h 8.1mph /  13km/h 62% 0in /  0.00mm 668.00 W/m2 unknown
11:09 80.6 °F /  27.0 °C 66.2 °F /  19.0 °C 30in /  1015.0hPa NE 5mph /  8km/h 8.1mph /  13km/h 61% 0in /  0.00mm 673.00 W/m2 unknown
11:14 80.6 °F /  27.0 °C 66.2 °F /  19.0 °C 30in /  1015.0hPa ESE 3.1mph /  5km/h 6.8mph /  11km/h 64% 0in /  0.00mm 754.00 W/m2 unknown
11:19 80.6 °F /  27.0 °C 66.2 °F /  19.0 °C 30in /  1015.0hPa NE 4.3mph /  7km/h 8.1mph /  13km/h 61% 0in /  0.00mm 763.00 W/m2 unknown
11:24 80.6 °F /  27.0 °C 66.2 °F /  19.0 °C 30in /  1015.0hPa ESE 5mph /  8km/h 8.1mph /  13km/h 60% 0in /  0.00mm 791.00 W/m2 unknown
11:29 82.4 °F /  28.0 °C 66.2 °F /  19.0 °C 30in /  1014.9hPa NE 5mph /  8km/h 8.1mph /  13km/h 61% 0in /  0.00mm 791.00 W/m2 unknown
11:34 82.4 °F /  28.0 °C 66.2 °F /  19.0 °C 30in /  1014.8hPa NE 5.6mph /  9km/h 8.1mph /  13km/h 60% 0in /  0.00mm 826.00 W/m2 unknown
11:39 82.4 °F /  28.0 °C 66.2 °F /  19.0 °C 30in /  1014.8hPa East 5mph /  8km/h 8.1mph /  13km/h 58% 0in /  0.00mm 819.00 W/m2 unknown
11:44 82.4 °F /  28.0 °C 66.2 °F /  19.0 °C 30in /  1014.8hPa East 5.6mph /  9km/h 9.3mph /  15km/h 62% 0in /  0.00mm 807.00 W/m2 unknown
11:49 82.4 °F /  28.0 °C 66.2 °F /  19.0 °C 30in /  1014.8hPa NNE 5mph /  8km/h 9.3mph /  15km/h 60% 0in /  0.00mm 719.00 W/m2 unknown
11:54 82.4 °F /  28.0 °C 66.2 °F /  19.0 °C 30in /  1014.7hPa ENE 6.8mph /  11km/h 9.3mph /  15km/h 60% 0in /  0.00mm 700.00 W/m2 unknown
11:59 82.4 °F /  28.0 °C 66.2 °F /  19.0 °C 30in /  1014.7hPa East 6.2mph /  10km/h 9.9mph /  16km/h 60% 0in /  0.00mm 684.00 W/m2 unknown
12:04 82.4 °F /  28.0 °C 66.2 °F /  19.0 °C 30in /  1014.6hPa East 6.2mph /  10km/h 10.6mph /  17km/h 60% 0in /  0.00mm 626.00 W/m2 unknown
12:09 80.6 °F /  27.0 °C 66.2 °F /  19.0 °C 30in /  1014.6hPa East 6.2mph /  10km/h 9.9mph /  16km/h 61% 0in /  0.00mm 677.00 W/m2 unknown
12:14 82.4 °F /  28.0 °C 66.2 °F /  19.0 °C 30in /  1014.6hPa East 5mph /  8km/h 8.7mph /  14km/h 60% 0in /  0.00mm 856.00 W/m2 unknown
12:19 82.4 °F /  28.0 °C 68 °F /  20.0 °C 30in /  1014.5hPa ENE 6.2mph /  10km/h 8.1mph /  13km/h 61% 0in /  0.00mm 891.00 W/m2 unknown
12:24 84.2 °F /  29.0 °C 68 °F /  20.0 °C 30in /  1014.5hPa ENE 6.2mph /  10km/h 8.1mph /  13km/h 61% 0in /  0.00mm 891.00 W/m2 unknown
12:29 82.4 °F /  28.0 °C 68 °F /  20.0 °C 30in /  1014.4hPa East 5.6mph /  9km/h 11.8mph /  19km/h 60% 0in /  0.00mm 854.00 W/m2 unknown
12:34 84.2 °F /  29.0 °C 68 °F /  20.0 °C 30in /  1014.4hPa East 5.6mph /  9km/h 11.8mph /  19km/h 60% 0in /  0.00mm 647.00 W/m2 unknown
12:39 82.4 °F /  28.0 °C 68 °F /  20.0 °C 30in /  1014.4hPa ESE 5mph /  8km/h 11.8mph /  19km/h 60% 0in /  0.00mm 761.00 W/m2 unknown
12:44 82.4 °F /  28.0 °C 66.2 °F /  19.0 °C 30in /  1014.4hPa East 6.2mph /  10km/h 8.1mph /  13km/h 59% 0in /  0.00mm 761.00 W/m2 unknown
12:49 84.2 °F /  29.0 °C 66.2 °F /  19.0 °C 30in /  1014.3hPa East 6.2mph /  10km/h 8.7mph /  14km/h 58% 0in /  0.00mm 721.00 W/m2 unknown
12:54 82.4 °F /  28.0 °C 68 °F /  20.0 °C 30in /  1014.3hPa ESE 6.2mph /  10km/h 9.3mph /  15km/h 59% 0in /  0.00mm 763.00 W/m2 unknown
12:59 84.2 °F /  29.0 °C 68 °F /  20.0 °C 30in /  1014.3hPa ESE 5.6mph /  9km/h 8.7mph /  14km/h 59% 0in /  0.00mm 861.00 W/m2 unknown
13:04 84.2 °F /  29.0 °C 68 °F /  20.0 °C 30in /  1014.3hPa ESE 5.6mph /  9km/h 14.3mph /  23km/h 59% 0in /  0.00mm 902.00 W/m2 unknown
13:09 84.2 °F /  29.0 °C 68 °F /  20.0 °C 30in /  1014.2hPa East 6.8mph /  11km/h 14.3mph /  23km/h 58% 0in /  0.00mm 902.00 W/m2 unknown
13:14 84.2 °F /  29.0 °C 68 °F /  20.0 °C 30in /  1014.2hPa East 6.8mph /  11km/h 14.3mph /  23km/h 57% 0in /  0.00mm 889.00 W/m2 unknown
13:19 86 °F /  30.0 °C 68 °F /  20.0 °C 30in /  1014.2hPa ENE 7.5mph /  12km/h 14.3mph /  23km/h 57% 0in /  0.00mm 868.00 W/m2 unknown
13:24 86 °F /  30.0 °C 68 °F /  20.0 °C 30in /  1014.2hPa East 6.8mph /  11km/h 14.3mph /  23km/h 56% 0in /  0.00mm 863.00 W/m2 unknown
13:29 86 °F /  30.0 °C 66.2 °F /  19.0 °C 30in /  1014.2hPa East 6.8mph /  11km/h 9.9mph /  16km/h 55% 0in /  0.00mm 865.00 W/m2 unknown
13:34 86 °F /  30.0 °C 68 °F /  20.0 °C 30in /  1014.2hPa East 8.1mph /  13km/h 10.6mph /  17km/h 55% 0in /  0.00mm 865.00 W/m2 unknown
13:39 86 °F /  30.0 °C 68 °F /  20.0 °C 30in /  1014.2hPa East 6.8mph /  11km/h 11.8mph /  19km/h 55% 0in /  0.00mm 865.00 W/m2 unknown
13:44 86 °F /  30.0 °C 68 °F /  20.0 °C 29.9in /  1014.1hPa ENE 6.8mph /  11km/h 11.8mph /  19km/h 55% 0in /  0.00mm 865.00 W/m2 unknown
13:49 86 °F /  30.0 °C 68 °F /  20.0 °C 29.9in /  1014.1hPa East 6.8mph /  11km/h 11.8mph /  19km/h 55% 0in /  0.00mm 875.00 W/m2 unknown
13:54 86 °F /  30.0 °C 68 °F /  20.0 °C 29.9in /  1014.0hPa ENE 6.8mph /  11km/h 11.8mph /  19km/h 56% 0in /  0.00mm 895.00 W/m2 unknown
13:59 86 °F /  30.0 °C 68 °F /  20.0 °C 29.9in /  1014.0hPa ENE 6.8mph /  11km/h 11.2mph /  18km/h 56% 0in /  0.00mm 900.00 W/m2 unknown
14:04 86 °F /  30.0 °C 68 °F /  20.0 °C 29.9in /  1014.0hPa ESE 6.8mph /  11km/h 11.2mph /  18km/h 55% 0in /  0.00mm 933.00 W/m2 unknown
14:09 86 °F /  30.0 °C 68 °F /  20.0 °C 29.9in /  1013.9hPa ESE 6.2mph /  10km/h 8.7mph /  14km/h 57% 0in /  0.00mm 243.00 W/m2 unknown
14:14 86 °F /  30.0 °C 68 °F /  20.0 °C 29.9in /  1013.9hPa ENE 5mph /  8km/h 6.8mph /  11km/h 57% 0in /  0.00mm 972.00 W/m2 unknown
14:19 86 °F /  30.0 °C 68 °F /  20.0 °C 29.9in /  1013.8hPa East 4.3mph /  7km/h 10.6mph /  17km/h 57% 0in /  0.00mm 972.00 W/m2 unknown
14:24 86 °F /  30.0 °C 68 °F /  20.0 °C 29.9in /  1013.8hPa East 5mph /  8km/h 10.6mph /  17km/h 57% 0in /  0.00mm 984.00 W/m2 unknown
14:29 86 °F /  30.0 °C 69.8 °F /  21.0 °C 29.9in /  1013.8hPa SE 5mph /  8km/h 9.9mph /  16km/h 57% 0in /  0.00mm 984.00 W/m2 unknown
14:34 86 °F /  30.0 °C 68 °F /  20.0 °C 29.9in /  1013.8hPa East 5mph /  8km/h 8.1mph /  13km/h 58% 0in /  0.00mm 285.00 W/m2 unknown
14:39 86 °F /  30.0 °C 68 °F /  20.0 °C 29.9in /  1013.8hPa East 6.2mph /  10km/h 8.7mph /  14km/h 59% 0in /  0.00mm 350.00 W/m2 unknown
14:44 84.2 °F /  29.0 °C 68 °F /  20.0 °C 29.9in /  1013.7hPa ESE 7.5mph /  12km/h 9.3mph /  15km/h 59% 0in /  0.00mm 350.00 W/m2 unknown
14:49 84.2 °F /  29.0 °C 68 °F /  20.0 °C 29.9in /  1013.7hPa ESE 6.8mph /  11km/h 9.3mph /  15km/h 60% 0in /  0.00mm 248.00 W/m2 unknown
14:54 84.2 °F /  29.0 °C 68 °F /  20.0 °C 29.9in /  1013.6hPa ESE 6.8mph /  11km/h 9.3mph /  15km/h 60% 0in /  0.00mm 898.00 W/m2 unknown
14:59 86 °F /  30.0 °C 68 °F /  20.0 °C 29.9in /  1013.5hPa East 6.2mph /  10km/h 8.1mph /  13km/h 59% 0in /  0.00mm 932.00 W/m2 unknown
15:04 87.8 °F /  31.0 °C 69.8 °F /  21.0 °C 29.9in /  1013.4hPa ESE 3.7mph /  6km/h 8.1mph /  13km/h 56% 0in /  0.00mm 944.00 W/m2 unknown
15:09 87.8 °F /  31.0 °C 69.8 °F /  21.0 °C 29.9in /  1013.4hPa East 5mph /  8km/h 8.1mph /  13km/h 55% 0in /  0.00mm 944.00 W/m2 unknown
15:14 87.8 °F /  31.0 °C 68 °F /  20.0 °C 29.9in /  1013.4hPa East 5mph /  8km/h 8.7mph /  14km/h 57% 0in /  0.00mm 229.00 W/m2 unknown
15:19 86 °F /  30.0 °C 69.8 °F /  21.0 °C 29.9in /  1013.3hPa East 5mph /  8km/h 9.3mph /  15km/h 61% 0in /  0.00mm 584.00 W/m2 unknown
15:24 86 °F /  30.0 °C 69.8 °F /  21.0 °C 29.9in /  1013.3hPa ESE 5mph /  8km/h 9.3mph /  15km/h 61% 0in /  0.00mm 954.00 W/m2 unknown
15:29 86 °F /  30.0 °C 69.8 °F /  21.0 °C 29.9in /  1013.2hPa East 5.6mph /  9km/h 8.7mph /  14km/h 60% 0in /  0.00mm 921.00 W/m2 unknown
15:34 86 °F /  30.0 °C 69.8 °F /  21.0 °C 29.9in /  1013.1hPa East 6.8mph /  11km/h 9.3mph /  15km/h 59% 0in /  0.00mm 601.00 W/m2 unknown
15:39 86 °F /  30.0 °C 69.8 °F /  21.0 °C 29.9in /  1013.1hPa ESE 6.8mph /  11km/h 10.6mph /  17km/h 60% 0in /  0.00mm 258.00 W/m2 unknown
15:44 84.2 °F /  29.0 °C 69.8 °F /  21.0 °C 29.9in /  1013.1hPa ESE 6.8mph /  11km/h 10.6mph /  17km/h 61% 0in /  0.00mm 202.00 W/m2 unknown
15:49 84.2 °F /  29.0 °C 69.8 °F /  21.0 °C 29.9in /  1013.1hPa ESE 6.8mph /  11km/h 9.3mph /  15km/h 63% 0in /  0.00mm 230.00 W/m2 unknown
15:54 84.2 °F /  29.0 °C 69.8 °F /  21.0 °C 29.9in /  1013.1hPa ESE 6.2mph /  10km/h 9.3mph /  15km/h 62% 0in /  0.00mm 230.00 W/m2 unknown
15:59 84.2 °F /  29.0 °C 69.8 °F /  21.0 °C 29.9in /  1013.0hPa East 5.6mph /  9km/h 8.1mph /  13km/h 62% 0in /  0.00mm 232.00 W/m2 unknown
16:04 84.2 °F /  29.0 °C 69.8 °F /  21.0 °C 29.9in /  1013.0hPa ESE 5.6mph /  9km/h 8.1mph /  13km/h 62% 0in /  0.00mm 239.00 W/m2 unknown
16:09 84.2 °F /  29.0 °C 69.8 °F /  21.0 °C 29.9in /  1012.9hPa ESE 5mph /  8km/h 8.1mph /  13km/h 61% 0in /  0.00mm 239.00 W/m2 unknown
16:14 84.2 °F /  29.0 °C 69.8 °F /  21.0 °C 29.9in /  1012.9hPa ESE 3.1mph /  5km/h 5mph /  8km/h 62% 0in /  0.00mm 246.00 W/m2 unknown
16:19 84.2 °F /  29.0 °C 69.8 °F /  21.0 °C 29.9in /  1012.9hPa ESE 3.1mph /  5km/h 5mph /  8km/h 63% 0in /  0.00mm 255.00 W/m2 unknown
16:24 84.2 °F /  29.0 °C 69.8 °F /  21.0 °C 29.9in /  1012.9hPa ESE 3.1mph /  5km/h 6.2mph /  10km/h 63% 0in /  0.00mm 264.00 W/m2 unknown
16:29 84.2 °F /  29.0 °C 69.8 °F /  21.0 °C 29.9in /  1012.9hPa ESE 3.1mph /  5km/h 6.2mph /  10km/h 63% 0in /  0.00mm 281.00 W/m2 unknown
16:33 84.2 °F /  29.0 °C 69.8 °F /  21.0 °C 29.9in /  1012.9hPa ESE 3.1mph /  5km/h 6.2mph /  10km/h 62% 0in /  0.00mm 311.00 W/m2 unknown
16:39 84.2 °F /  29.0 °C 69.8 °F /  21.0 °C 29.9in /  1012.9hPa ESE 1.9mph /  3km/h 3.7mph /  6km/h 63% 0in /  0.00mm 775.00 W/m2 unknown
16:44 86 °F /  30.0 °C 69.8 °F /  21.0 °C 29.9in /  1012.9hPa ESE 2.5mph /  4km/h 5mph /  8km/h 62% 0in /  0.00mm 802.00 W/m2 unknown
16:49 86 °F /  30.0 °C 69.8 °F /  21.0 °C 29.9in /  1012.8hPa ESE 2.5mph /  4km/h 5mph /  8km/h 59% 0in /  0.00mm 784.00 W/m2 unknown
16:54 86 °F /  30.0 °C 69.8 °F /  21.0 °C 29.9in /  1012.8hPa SE 3.1mph /  5km/h 8.1mph /  13km/h 57% 0in /  0.00mm 582.00 W/m2 unknown
16:59 86 °F /  30.0 °C 69.8 °F /  21.0 °C 29.9in /  1012.7hPa SE 4.3mph /  7km/h 8.1mph /  13km/h 57% 0in /  0.00mm 422.00 W/m2 unknown
17:04 86 °F /  30.0 °C 68 °F /  20.0 °C 29.9in /  1012.7hPa SE 3.7mph /  6km/h 8.1mph /  13km/h 56% 0in /  0.00mm 494.00 W/m2 unknown
17:09 86 °F /  30.0 °C 69.8 °F /  21.0 °C 29.9in /  1012.7hPa SSE 3.1mph /  5km/h 5mph /  8km/h 57% 0in /  0.00mm 547.00 W/m2 unknown
17:14 86 °F /  30.0 °C 69.8 °F /  21.0 °C 29.9in /  1012.7hPa ESE 2.5mph /  4km/h 5mph /  8km/h 57% 0in /  0.00mm 529.00 W/m2 unknown
17:19 86 °F /  30.0 °C 69.8 °F /  21.0 °C 29.9in /  1012.7hPa SE 2.5mph /  4km/h 6.8mph /  11km/h 57% 0in /  0.00mm 613.00 W/m2 unknown
17:24 87.8 °F /  31.0 °C 69.8 °F /  21.0 °C 29.9in /  1012.7hPa ESE 3.1mph /  5km/h 6.8mph /  11km/h 56% 0in /  0.00mm 594.00 W/m2 unknown
17:29 87.8 °F /  31.0 °C 68 °F /  20.0 °C 29.9in /  1012.6hPa SE 4.3mph /  7km/h 6.8mph /  11km/h 55% 0in /  0.00mm 649.00 W/m2 unknown
17:34 87.8 °F /  31.0 °C 68 °F /  20.0 °C 29.9in /  1012.4hPa SE 4.3mph /  7km/h 8.1mph /  13km/h 53% 0in /  0.00mm 643.00 W/m2 unknown
17:39 87.8 °F /  31.0 °C 68 °F /  20.0 °C 29.9in /  1012.4hPa East 3.7mph /  6km/h 8.1mph /  13km/h 54% 0in /  0.00mm 573.00 W/m2 unknown
17:44 86 °F /  30.0 °C 68 °F /  20.0 °C 29.9in /  1012.3hPa East 5mph /  8km/h 8.7mph /  14km/h 55% 0in /  0.00mm 570.00 W/m2 unknown
17:48 86 °F /  30.0 °C 68 °F /  20.0 °C 29.9in /  1012.3hPa ESE 6.8mph /  11km/h 10.6mph /  17km/h 55% 0in /  0.00mm 548.00 W/m2 unknown
17:54 86 °F /  30.0 °C 68 °F /  20.0 °C 29.9in /  1012.2hPa East 7.5mph /  12km/h 10.6mph /  17km/h 54% 0in /  0.00mm 512.00 W/m2 unknown
17:59 86 °F /  30.0 °C 68 °F /  20.0 °C 29.9in /  1012.2hPa ESE 6.8mph /  11km/h 9.9mph /  16km/h 54% 0in /  0.00mm 471.00 W/m2 unknown
18:04 86 °F /  30.0 °C 68 °F /  20.0 °C 29.9in /  1012.2hPa East 5mph /  8km/h 9.3mph /  15km/h 54% 0in /  0.00mm 445.00 W/m2 unknown
18:09 86 °F /  30.0 °C 68 °F /  20.0 °C 29.9in /  1012.2hPa East 6.2mph /  10km/h 9.3mph /  15km/h 54% 0in /  0.00mm 417.00 W/m2 unknown
18:14 86 °F /  30.0 °C 68 °F /  20.0 °C 29.9in /  1012.1hPa ESE 6.2mph /  10km/h 8.7mph /  14km/h 54% 0in /  0.00mm 401.00 W/m2 unknown
18:19 86 °F /  30.0 °C 68 °F /  20.0 °C 29.9in /  1012.0hPa East 6.2mph /  10km/h 6.8mph /  11km/h 54% 0in /  0.00mm 380.00 W/m2 unknown
18:24 86 °F /  30.0 °C 68 °F /  20.0 °C 29.9in /  1012.0hPa East 6.2mph /  10km/h 8.1mph /  13km/h 53% 0in /  0.00mm 362.00 W/m2 unknown
18:29 86 °F /  30.0 °C 68 °F /  20.0 °C 29.9in /  1011.9hPa East 6.2mph /  10km/h 8.7mph /  14km/h 53% 0in /  0.00mm 343.00 W/m2 unknown
18:34 86 °F /  30.0 °C 68 °F /  20.0 °C 29.9in /  1011.9hPa East 6.2mph /  10km/h 9.3mph /  15km/h 54% 0in /  0.00mm 323.00 W/m2 unknown
18:38 86 °F /  30.0 °C 68 °F /  20.0 °C 29.9in /  1011.8hPa ESE 6.2mph /  10km/h 9.3mph /  15km/h 54% 0in /  0.00mm 311.00 W/m2 unknown
18:44 86 °F /  30.0 °C 68 °F /  20.0 °C 29.9in /  1011.8hPa ESE 5mph /  8km/h 9.3mph /  15km/h 54% 0in /  0.00mm 295.00 W/m2 unknown
18:49 86 °F /  30.0 °C 68 °F /  20.0 °C 29.9in /  1011.8hPa East 5mph /  8km/h 8.7mph /  14km/h 54% 0in /  0.00mm 279.00 W/m2 unknown
18:54 86 °F /  30.0 °C 68 °F /  20.0 °C 29.9in /  1011.8hPa ESE 5.6mph /  9km/h 8.1mph /  13km/h 54% 0in /  0.00mm 267.00 W/m2 unknown
18:59 86 °F /  30.0 °C 66.2 °F /  19.0 °C 29.9in /  1011.8hPa ESE 6.2mph /  10km/h 6.8mph /  11km/h 54% 0in /  0.00mm 253.00 W/m2 unknown
19:04 86 °F /  30.0 °C 68 °F /  20.0 °C 29.9in /  1011.7hPa ESE 5mph /  8km/h 6.8mph /  11km/h 55% 0in /  0.00mm 239.00 W/m2 unknown
19:09 86 °F /  30.0 °C 68 °F /  20.0 °C 29.9in /  1011.7hPa ESE 2.5mph /  4km/h 3.7mph /  6km/h 55% 0in /  0.00mm 221.00 W/m2 unknown
19:14 86 °F /  30.0 °C 68 °F /  20.0 °C 29.9in /  1011.6hPa East 3.1mph /  5km/h 6.2mph /  10km/h 56% 0in /  0.00mm 204.00 W/m2 unknown
19:19 86 °F /  30.0 °C 68 °F /  20.0 °C 29.9in /  1011.6hPa ESE 3.1mph /  5km/h 6.2mph /  10km/h 56% 0in /  0.00mm 186.00 W/m2 unknown
19:24 86 °F /  30.0 °C 68 °F /  20.0 °C 29.9in /  1011.6hPa ESE 4.3mph /  7km/h 8.7mph /  14km/h 56% 0in /  0.00mm 186.00 W/m2 unknown
19:29 86 °F /  30.0 °C 68 °F /  20.0 °C 29.9in /  1011.6hPa ESE 5mph /  8km/h 9.3mph /  15km/h 57% 0in /  0.00mm 165.00 W/m2 unknown
19:34 84.2 °F /  29.0 °C 68 °F /  20.0 °C 29.9in /  1011.5hPa ESE 5mph /  8km/h 9.3mph /  15km/h 58% 0in /  0.00mm 146.00 W/m2 unknown
19:39 84.2 °F /  29.0 °C 68 °F /  20.0 °C 29.9in /  1011.5hPa East 5mph /  8km/h 8.7mph /  14km/h 59% 0in /  0.00mm 127.00 W/m2 unknown
19:44 84.2 °F /  29.0 °C 68 °F /  20.0 °C 29.9in /  1011.5hPa East 5mph /  8km/h 6.8mph /  11km/h 59% 0in /  0.00mm 51.00 W/m2 unknown
19:49 84.2 °F /  29.0 °C 68 °F /  20.0 °C 29.9in /  1011.5hPa ESE 3.7mph /  6km/h 5mph /  8km/h 59% 0in /  0.00mm 44.00 W/m2 unknown
19:54 84.2 °F /  29.0 °C 68 °F /  20.0 °C 29.9in /  1011.6hPa ESE 3.1mph /  5km/h 5mph /  8km/h 59% 0in /  0.00mm 32.00 W/m2 unknown
19:59 84.2 °F /  29.0 °C 68 °F /  20.0 °C 29.9in /  1011.6hPa East 2.5mph /  4km/h 5mph /  8km/h 59% 0in /  0.00mm 28.00 W/m2 unknown
20:04 82.4 °F /  28.0 °C 68 °F /  20.0 °C 29.9in /  1011.6hPa East 3.1mph /  5km/h 3.7mph /  6km/h 59% 0in /  0.00mm 25.00 W/m2 unknown
20:09 82.4 °F /  28.0 °C 68 °F /  20.0 °C 29.9in /  1011.6hPa East 2.5mph /  4km/h 5mph /  8km/h 59% 0in /  0.00mm 18.00 W/m2 unknown
20:14 82.4 °F /  28.0 °C 68 °F /  20.0 °C 29.9in /  1011.5hPa East 2.5mph /  4km/h 3.7mph /  6km/h 61% 0in /  0.00mm 18.00 W/m2 unknown
20:19 82.4 °F /  28.0 °C 68 °F /  20.0 °C 29.9in /  1011.6hPa East 2.5mph /  4km/h 3.7mph /  6km/h 62% 0in /  0.00mm 23.00 W/m2 unknown
20:24 82.4 °F /  28.0 °C 68 °F /  20.0 °C 29.9in /  1011.7hPa East 1.9mph /  3km/h 3.7mph /  6km/h 62% 0in /  0.00mm 26.00 W/m2 unknown
20:29 82.4 °F /  28.0 °C 68 °F /  20.0 °C 29.9in /  1011.7hPa East 2.5mph /  4km/h 3.7mph /  6km/h 61% 0in /  0.00mm 26.00 W/m2 unknown
20:34 82.4 °F /  28.0 °C 68 °F /  20.0 °C 29.9in /  1011.7hPa ENE 1.9mph /  3km/h 3.7mph /  6km/h 61% 0in /  0.00mm 23.00 W/m2 unknown
20:39 82.4 °F /  28.0 °C 68 °F /  20.0 °C 29.9in /  1011.7hPa ENE 1.9mph /  3km/h 3.7mph /  6km/h 61% 0in /  0.00mm 21.00 W/m2 unknown
20:44 82.4 °F /  28.0 °C 66.2 °F /  19.0 °C 29.9in /  1011.6hPa ENE 1.9mph /  3km/h 3.7mph /  6km/h 61% 0in /  0.00mm 19.00 W/m2 unknown
20:49 82.4 °F /  28.0 °C 68 °F /  20.0 °C 29.9in /  1011.6hPa East 1.9mph /  3km/h 3.7mph /  6km/h 62% 0in /  0.00mm 12.00 W/m2 unknown
20:54 80.6 °F /  27.0 °C 68 °F /  20.0 °C 29.9in /  1011.6hPa East 2.5mph /  4km/h 5mph /  8km/h 62% 0in /  0.00mm 9.00 W/m2 unknown
20:59 80.6 °F /  27.0 °C 66.2 °F /  19.0 °C 29.9in /  1011.5hPa ESE 3.7mph /  6km/h 6.2mph /  10km/h 63% 0in /  0.00mm 5.00 W/m2 unknown
21:04 80.6 °F /  27.0 °C 66.2 °F /  19.0 °C 29.9in /  1011.5hPa East 4.3mph /  7km/h 6.8mph /  11km/h 64% 0in /  0.00mm 0.00 W/m2 unknown
21:09 80.6 °F /  27.0 °C 66.2 °F /  19.0 °C 29.9in /  1011.6hPa ESE 4.3mph /  7km/h 6.8mph /  11km/h 65% 0in /  0.00mm 0.00 W/m2 unknown
21:14 80.6 °F /  27.0 °C 66.2 °F /  19.0 °C 29.9in /  1011.7hPa ESE 3.1mph /  5km/h 6.2mph /  10km/h 65% 0in /  0.00mm 0.00 W/m2 unknown
21:19 78.8 °F /  26.0 °C 66.2 °F /  19.0 °C 29.9in /  1011.8hPa ESE 1.2mph /  2km/h 3.1mph /  5km/h 66% 0in /  0.00mm 0.00 W/m2 unknown
21:24 78.8 °F /  26.0 °C 66.2 °F /  19.0 °C 29.9in /  1011.8hPa ESE 1.9mph /  3km/h 2.5mph /  4km/h 66% 0in /  0.00mm 0.00 W/m2 unknown
21:29 78.8 °F /  26.0 °C 66.2 °F /  19.0 °C 29.9in /  1011.8hPa ESE 1.9mph /  3km/h 2.5mph /  4km/h 66% 0in /  0.00mm 0.00 W/m2 unknown
21:34 78.8 °F /  26.0 °C 66.2 °F /  19.0 °C 29.9in /  1011.7hPa ESE 2.5mph /  4km/h 3.7mph /  6km/h 65% 0in /  0.00mm 0.00 W/m2 unknown
21:39 78.8 °F /  26.0 °C 66.2 °F /  19.0 °C 29.9in /  1011.7hPa East 2.5mph /  4km/h 3.7mph /  6km/h 66% 0in /  0.00mm 0.00 W/m2 unknown
21:44 78.8 °F /  26.0 °C 66.2 °F /  19.0 °C 29.9in /  1011.7hPa East 2.5mph /  4km/h 3.7mph /  6km/h 66% 0in /  0.00mm 0.00 W/m2 unknown
21:49 78.8 °F /  26.0 °C 66.2 °F /  19.0 °C 29.9in /  1011.8hPa East 1.9mph /  3km/h 3.7mph /  6km/h 66% 0in /  0.00mm 0.00 W/m2 unknown
21:52 78.8 °F /  26.0 °C 66.2 °F /  19.0 °C 29.9in /  1011.7hPa East 1.9mph /  3km/h 3.7mph /  6km/h 65% 0in /  0.00mm 0.00 W/m2 unknown
21:59 78.8 °F /  26.0 °C 66.2 °F /  19.0 °C 29.9in /  1012.0hPa East 3.1mph /  5km/h 5mph /  8km/h 65% 0in /  0.00mm 0.00 W/m2 unknown
22:04 78.8 °F /  26.0 °C 66.2 °F /  19.0 °C 29.9in /  1012.0hPa ESE 3.7mph /  6km/h 5mph /  8km/h 65% 0in /  0.00mm 0.00 W/m2 unknown
22:09 78.8 °F /  26.0 °C 66.2 °F /  19.0 °C 29.9in /  1011.9hPa ESE 3.7mph /  6km/h 5mph /  8km/h 66% 0in /  0.00mm 0.00 W/m2 unknown
22:14 77 °F /  25.0 °C 66.2 °F /  19.0 °C 29.9in /  1011.9hPa ESE 3.1mph /  5km/h 5mph /  8km/h 66% 0in /  0.00mm 0.00 W/m2 unknown
22:19 77 °F /  25.0 °C 64.4 °F /  18.0 °C 29.9in /  1012.0hPa East 3.1mph /  5km/h 4.3mph /  7km/h 66% 0in /  0.00mm 0.00 W/m2 unknown
22:24 77 °F /  25.0 °C 64.4 °F /  18.0 °C 29.9in /  1012.0hPa East 3.1mph /  5km/h 3.7mph /  6km/h 66% 0in /  0.00mm 0.00 W/m2 unknown
22:29 77 °F /  25.0 °C 64.4 °F /  18.0 °C 29.9in /  1012.0hPa East 1.9mph /  3km/h 5mph /  8km/h 66% 0in /  0.00mm 0.00 W/m2 unknown
22:34 77 °F /  25.0 °C 64.4 °F /  18.0 °C 29.9in /  1012.0hPa East 3.1mph /  5km/h 5mph /  8km/h 66% 0in /  0.00mm 0.00 W/m2 unknown
22:39 77 °F /  25.0 °C 64.4 °F /  18.0 °C 29.9in /  1012.0hPa East 3.1mph /  5km/h 5mph /  8km/h 66% 0in /  0.00mm 0.00 W/m2 unknown
22:44 77 °F /  25.0 °C 64.4 °F /  18.0 °C 29.9in /  1012.0hPa East 3.1mph /  5km/h 5mph /  8km/h 66% 0in /  0.00mm 0.00 W/m2 unknown
22:49 77 °F /  25.0 °C 64.4 °F /  18.0 °C 29.9in /  1012.0hPa East 3.7mph /  6km/h 5mph /  8km/h 67% 0in /  0.00mm 0.00 W/m2 unknown
22:54 77 °F /  25.0 °C 64.4 °F /  18.0 °C 29.9in /  1012.1hPa East 3.7mph /  6km/h 6.2mph /  10km/h 67% 0in /  0.00mm 0.00 W/m2 unknown
22:59 77 °F /  25.0 °C 64.4 °F /  18.0 °C 29.9in /  1012.1hPa East 3.7mph /  6km/h 6.2mph /  10km/h 68% 0in /  0.00mm 0.00 W/m2 unknown
23:04 77 °F /  25.0 °C 64.4 °F /  18.0 °C 29.9in /  1012.1hPa East 3.7mph /  6km/h 6.2mph /  10km/h 68% 0in /  0.00mm 0.00 W/m2 unknown
23:09 75.2 °F /  24.0 °C 64.4 °F /  18.0 °C 29.9in /  1012.2hPa East 3.1mph /  5km/h 6.2mph /  10km/h 68% 0in /  0.00mm 0.00 W/m2 unknown
23:14 75.2 °F /  24.0 °C 64.4 °F /  18.0 °C 29.9in /  1012.2hPa East 3.1mph /  5km/h 6.2mph /  10km/h 68% 0in /  0.00mm 0.00 W/m2 unknown
23:19 75.2 °F /  24.0 °C 64.4 °F /  18.0 °C 29.9in /  1012.2hPa East 3.1mph /  5km/h 5mph /  8km/h 68% 0in /  0.00mm 0.00 W/m2 unknown
23:24 75.2 °F /  24.0 °C 64.4 °F /  18.0 °C 29.9in /  1012.1hPa East 3.1mph /  5km/h 5mph /  8km/h 69% 0in /  0.00mm 0.00 W/m2 unknown
23:29 75.2 °F /  24.0 °C 64.4 °F /  18.0 °C 29.9in /  1012.1hPa ENE 3.1mph /  5km/h 5mph /  8km/h 69% 0in /  0.00mm 0.00 W/m2 unknown
23:34 75.2 °F /  24.0 °C 64.4 °F /  18.0 °C 29.9in /  1012.1hPa ENE 3.1mph /  5km/h 5mph /  8km/h 69% 0in /  0.00mm 0.00 W/m2 unknown
23:39 75.2 °F /  24.0 °C 64.4 °F /  18.0 °C 29.9in /  1012.1hPa ENE 2.5mph /  4km/h 3.7mph /  6km/h 69% 0in /  0.00mm 0.00 W/m2 unknown
23:44 75.2 °F /  24.0 °C 64.4 °F /  18.0 °C 29.9in /  1012.1hPa NE 3.1mph /  5km/h 3.7mph /  6km/h 69% 0in /  0.00mm 0.00 W/m2 unknown
23:49 75.2 °F /  24.0 °C 64.4 °F /  18.0 °C 29.9in /  1012.2hPa ENE 2.5mph /  4km/h 3.7mph /  6km/h 69% 0in /  0.00mm 0.00 W/m2 unknown
23:54 75.2 °F /  24.0 °C 64.4 °F /  18.0 °C 29.9in /  1012.2hPa ENE 2.5mph /  4km/h 3.7mph /  6km/h 69% 0in /  0.00mm 0.00 W/m2 unknown
23:59 73.4 °F /  23.0 °C 62.6 °F /  17.0 °C 29.9in /  1012.2hPa ENE 2.5mph /  4km/h 3.7mph /  6km/h 69% 0in /  0.00mm 0.00 W/m2 unknown
Stazione Meteorologica MeteoMincio Rivalta s/M (MN)
Con i complimenti di Weather Underground - 4 mb



METEO PILLOLE
La più intensa nevicata in 24 ore
Silver Lake - Colorado
Tra il 14 e il 15 aprile 1921 caddero 193 cm di neve
C'è anche un altro dato, ma non è ufficiale, a Roccacaramanico (1050m) in Abruzzo - Italia, Il 17 dicembre 1961 caddero 340 cm di neve.
Share

Non seguire questo link o sarai bannato dal sito!